logo
Search for airport 
image banner adimage banner adimage banner ad
image banner ad

CNV2 - Inverness(Consolidated Memorial Hospital)

Located in , Canada

ICAO - CNV2, IATA -

Data provided by Airmate  

General information

Coordinates: N46°11'58" W61°17'29"
Elevation is 100 feet MSL.
Magnetic variation is -18.5664° East
View others Airports in Nova Scotia

Operational data

Special qualification required
Current time UTC:
Current local time:
Weather at : CYPD - Port Hawkesbury ( 61 km )
METAR: CYPD 230300Z AUTO 34005KT 9SM CLR M01/M08 A3003 RMK SLP177
View NOTAMs / SUP AIP / TFR affecting this airport [VIEW]
Communications frequencies: [VIEW]

Runways:

Airport contact information

Address: Canada

Satellite view of CNV2